sensor_id;sensor_type;location;lat;lon;timestamp;P1;durP1;ratioP1;P2;durP2;ratioP2
11486;SDS011;10510;47.942;9.442;2022-09-03T00:01:56;6.82;;;3.80;;
11486;SDS011;10510;47.942;9.442;2022-09-03T00:04:02;6.60;;;3.90;;
11486;SDS011;10510;47.942;9.442;2022-09-03T00:08:32;4.45;;;3.53;;
11486;SDS011;10510;47.942;9.442;2022-09-03T00:10:45;6.13;;;3.60;;
11486;SDS011;10510;47.942;9.442;2022-09-03T00:12:46;5.88;;;4.10;;
11486;SDS011;10510;47.942;9.442;2022-09-03T00:14:49;6.72;;;3.30;;
11486;SDS011;10510;47.942;9.442;2022-09-03T00:18:57;5.43;;;3.63;;
11486;SDS011;10510;47.942;9.442;2022-09-03T00:21:02;4.88;;;3.53;;
11486;SDS011;10510;47.942;9.442;2022-09-03T00:23:08;4.28;;;3.15;;
11486;SDS011;10510;47.942;9.442;2022-09-03T00:25:16;9.02;;;3.20;;
11486;SDS011;10510;47.942;9.442;2022-09-03T00:27:21;10.80;;;3.58;;
11486;SDS011;10510;47.942;9.442;2022-09-03T00:29:27;6.55;;;3.80;;
11486;SDS011;10510;47.942;9.442;2022-09-03T00:31:35;4.00;;;3.50;;
11486;SDS011;10510;47.942;9.442;2022-09-03T00:33:41;3.83;;;3.42;;
11486;SDS011;10510;47.942;9.442;2022-09-03T00:35:49;4.97;;;3.30;;
11486;SDS011;10510;47.942;9.442;2022-09-03T00:37:54;4.82;;;3.92;;
11486;SDS011;10510;47.942;9.442;2022-09-03T00:39:55;4.32;;;3.92;;
11486;SDS011;10510;47.942;9.442;2022-09-03T00:44:20;5.15;;;3.95;;
11486;SDS011;10510;47.942;9.442;2022-09-03T00:51:32;4.55;;;3.90;;
11486;SDS011;10510;47.942;9.442;2022-09-03T01:00:21;7.78;;;4.63;;
11486;SDS011;10510;47.942;9.442;2022-09-03T01:02:24;7.68;;;4.22;;
11486;SDS011;10510;47.942;9.442;2022-09-03T01:04:39;4.60;;;3.88;;
11486;SDS011;10510;47.942;9.442;2022-09-03T01:07:06;7.50;;;4.70;;
11486;SDS011;10510;47.942;9.442;2022-09-03T01:09:33;5.53;;;3.75;;
11486;SDS011;10510;47.942;9.442;2022-09-03T01:13:56;4.65;;;4.07;;
11486;SDS011;10510;47.942;9.442;2022-09-03T01:16:21;7.55;;;4.40;;
11486;SDS011;10510;47.942;9.442;2022-09-03T01:18:56;8.75;;;3.92;;
11486;SDS011;10510;47.942;9.442;2022-09-03T01:21:38;6.45;;;4.10;;
11486;SDS011;10510;47.942;9.442;2022-09-03T01:28:48;7.47;;;4.23;;
11486;SDS011;10510;47.942;9.442;2022-09-03T01:33:14;8.07;;;3.88;;
11486;SDS011;10510;47.942;9.442;2022-09-03T01:37:53;5.28;;;4.15;;
11486;SDS011;10510;47.942;9.442;2022-09-03T01:49:27;5.15;;;4.45;;
11486;SDS011;10510;47.942;9.442;2022-09-03T01:51:38;7.05;;;4.18;;
11486;SDS011;10510;47.942;9.442;2022-09-03T01:58:29;10.05;;;4.57;;
11486;SDS011;10510;47.942;9.442;2022-09-03T02:00:34;5.68;;;4.28;;
11486;SDS011;10510;47.942;9.442;2022-09-03T02:02:41;5.68;;;5.07;;
11486;SDS011;10510;47.942;9.442;2022-09-03T02:04:43;8.05;;;5.43;;
11486;SDS011;10510;47.942;9.442;2022-09-03T02:07:14;6.88;;;4.93;;
11486;SDS011;10510;47.942;9.442;2022-09-03T02:09:18;7.10;;;5.13;;
11486;SDS011;10510;47.942;9.442;2022-09-03T02:11:19;9.13;;;5.28;;
11486;SDS011;10510;47.942;9.442;2022-09-03T02:13:23;10.20;;;5.05;;
11486;SDS011;10510;47.942;9.442;2022-09-03T02:15:27;7.43;;;5.70;;
11486;SDS011;10510;47.942;9.442;2022-09-03T02:17:32;5.93;;;5.13;;
11486;SDS011;10510;47.942;9.442;2022-09-03T02:19:34;9.30;;;5.15;;
11486;SDS011;10510;47.942;9.442;2022-09-03T02:21:41;7.22;;;5.55;;
11486;SDS011;10510;47.942;9.442;2022-09-03T02:23:49;7.60;;;5.18;;
11486;SDS011;10510;47.942;9.442;2022-09-03T02:25:52;6.93;;;5.55;;
11486;SDS011;10510;47.942;9.442;2022-09-03T02:27:55;9.43;;;5.43;;
11486;SDS011;10510;47.942;9.442;2022-09-03T02:29:56;11.85;;;5.30;;
11486;SDS011;10510;47.942;9.442;2022-09-03T02:31:58;8.20;;;5.63;;
11486;SDS011;10510;47.942;9.442;2022-09-03T02:33:58;8.40;;;5.72;;
11486;SDS011;10510;47.942;9.442;2022-09-03T02:35:58;8.32;;;6.70;;
11486;SDS011;10510;47.942;9.442;2022-09-03T02:38:14;10.77;;;7.30;;
11486;SDS011;10510;47.942;9.442;2022-09-03T02:40:18;14.60;;;7.57;;
11486;SDS011;10510;47.942;9.442;2022-09-03T02:42:19;8.60;;;7.38;;
11486;SDS011;10510;47.942;9.442;2022-09-03T02:44:27;12.13;;;7.63;;
11486;SDS011;10510;47.942;9.442;2022-09-03T02:46:40;12.40;;;8.15;;
11486;SDS011;10510;47.942;9.442;2022-09-03T02:48:43;10.27;;;7.85;;
11486;SDS011;10510;47.942;9.442;2022-09-03T02:50:43;10.32;;;8.00;;
11486;SDS011;10510;47.942;9.442;2022-09-03T02:52:44;11.57;;;8.07;;
11486;SDS011;10510;47.942;9.442;2022-09-03T02:54:44;10.65;;;8.27;;
11486;SDS011;10510;47.942;9.442;2022-09-03T02:56:44;11.13;;;8.45;;
11486;SDS011;10510;47.942;9.442;2022-09-03T02:58:47;11.07;;;7.30;;
11486;SDS011;10510;47.942;9.442;2022-09-03T03:00:47;10.55;;;7.82;;
11486;SDS011;10510;47.942;9.442;2022-09-03T03:02:48;14.25;;;7.68;;
11486;SDS011;10510;47.942;9.442;2022-09-03T03:04:49;12.63;;;7.72;;
11486;SDS011;10510;47.942;9.442;2022-09-03T03:06:49;9.43;;;6.88;;
11486;SDS011;10510;47.942;9.442;2022-09-03T03:08:50;9.02;;;7.55;;
11486;SDS011;10510;47.942;9.442;2022-09-03T03:10:51;11.88;;;8.07;;
11486;SDS011;10510;47.942;9.442;2022-09-03T03:12:53;11.73;;;8.05;;
11486;SDS011;10510;47.942;9.442;2022-09-03T03:14:53;8.57;;;7.65;;
11486;SDS011;10510;47.942;9.442;2022-09-03T03:16:53;9.70;;;8.00;;
11486;SDS011;10510;47.942;9.442;2022-09-03T03:18:56;12.23;;;7.85;;
11486;SDS011;10510;47.942;9.442;2022-09-03T03:20:57;11.45;;;8.85;;
11486;SDS011;10510;47.942;9.442;2022-09-03T03:23:09;11.88;;;7.82;;
11486;SDS011;10510;47.942;9.442;2022-09-03T03:25:10;8.82;;;7.93;;
11486;SDS011;10510;47.942;9.442;2022-09-03T03:27:10;12.18;;;8.52;;
11486;SDS011;10510;47.942;9.442;2022-09-03T03:29:15;14.48;;;8.15;;
11486;SDS011;10510;47.942;9.442;2022-09-03T03:31:18;13.25;;;8.05;;
11486;SDS011;10510;47.942;9.442;2022-09-03T03:33:19;9.25;;;7.65;;
11486;SDS011;10510;47.942;9.442;2022-09-03T03:35:20;9.10;;;7.68;;
11486;SDS011;10510;47.942;9.442;2022-09-03T03:37:20;11.27;;;8.00;;
11486;SDS011;10510;47.942;9.442;2022-09-03T03:39:20;10.35;;;7.68;;
11486;SDS011;10510;47.942;9.442;2022-09-03T03:41:22;11.30;;;7.90;;
11486;SDS011;10510;47.942;9.442;2022-09-03T03:43:24;10.30;;;8.35;;
11486;SDS011;10510;47.942;9.442;2022-09-03T03:45:24;9.73;;;7.82;;
11486;SDS011;10510;47.942;9.442;2022-09-03T03:47:25;10.27;;;8.07;;
11486;SDS011;10510;47.942;9.442;2022-09-03T03:49:25;10.30;;;7.63;;
11486;SDS011;10510;47.942;9.442;2022-09-03T03:51:25;8.73;;;7.32;;
11486;SDS011;10510;47.942;9.442;2022-09-03T03:53:25;9.00;;;8.10;;
11486;SDS011;10510;47.942;9.442;2022-09-03T03:55:26;9.13;;;8.13;;
11486;SDS011;10510;47.942;9.442;2022-09-03T03:57:28;12.38;;;7.82;;
11486;SDS011;10510;47.942;9.442;2022-09-03T03:59:29;15.07;;;8.73;;
11486;SDS011;10510;47.942;9.442;2022-09-03T04:01:30;11.18;;;8.88;;
11486;SDS011;10510;47.942;9.442;2022-09-03T04:03:30;11.88;;;9.43;;
11486;SDS011;10510;47.942;9.442;2022-09-03T04:05:30;9.50;;;8.27;;
11486;SDS011;10510;47.942;9.442;2022-09-03T04:07:31;12.23;;;8.63;;
11486;SDS011;10510;47.942;9.442;2022-09-03T04:09:31;10.63;;;8.18;;
11486;SDS011;10510;47.942;9.442;2022-09-03T04:11:31;9.75;;;8.15;;
11486;SDS011;10510;47.942;9.442;2022-09-03T04:13:32;13.82;;;9.15;;
11486;SDS011;10510;47.942;9.442;2022-09-03T04:15:34;10.18;;;8.23;;
11486;SDS011;10510;47.942;9.442;2022-09-03T04:17:35;11.75;;;8.05;;
11486;SDS011;10510;47.942;9.442;2022-09-03T04:19:36;10.63;;;8.68;;
11486;SDS011;10510;47.942;9.442;2022-09-03T04:21:37;13.75;;;9.35;;
11486;SDS011;10510;47.942;9.442;2022-09-03T04:23:38;9.57;;;8.30;;
11486;SDS011;10510;47.942;9.442;2022-09-03T04:25:40;14.55;;;8.48;;
11486;SDS011;10510;47.942;9.442;2022-09-03T04:27:41;10.05;;;8.50;;
11486;SDS011;10510;47.942;9.442;2022-09-03T04:29:41;10.35;;;8.75;;
11486;SDS011;10510;47.942;9.442;2022-09-03T04:31:41;11.63;;;8.75;;
11486;SDS011;10510;47.942;9.442;2022-09-03T04:34:02;9.52;;;8.32;;
11486;SDS011;10510;47.942;9.442;2022-09-03T04:36:06;10.63;;;8.45;;
11486;SDS011;10510;47.942;9.442;2022-09-03T04:38:10;12.07;;;9.32;;
11486;SDS011;10510;47.942;9.442;2022-09-03T04:40:11;11.05;;;8.65;;
11486;SDS011;10510;47.942;9.442;2022-09-03T04:42:12;19.35;;;12.48;;
11486;SDS011;10510;47.942;9.442;2022-09-03T04:44:12;15.77;;;11.85;;
11486;SDS011;10510;47.942;9.442;2022-09-03T04:46:12;10.98;;;9.45;;
11486;SDS011;10510;47.942;9.442;2022-09-03T04:48:13;17.55;;;10.70;;
11486;SDS011;10510;47.942;9.442;2022-09-03T04:50:14;10.85;;;9.35;;
11486;SDS011;10510;47.942;9.442;2022-09-03T04:52:14;13.23;;;10.05;;
11486;SDS011;10510;47.942;9.442;2022-09-03T04:54:14;9.50;;;8.43;;
11486;SDS011;10510;47.942;9.442;2022-09-03T04:56:16;11.93;;;9.13;;
11486;SDS011;10510;47.942;9.442;2022-09-03T04:58:17;11.27;;;8.85;;
11486;SDS011;10510;47.942;9.442;2022-09-03T05:00:17;11.48;;;8.88;;
11486;SDS011;10510;47.942;9.442;2022-09-03T05:02:18;8.85;;;7.95;;
11486;SDS011;10510;47.942;9.442;2022-09-03T05:04:20;14.25;;;8.52;;
11486;SDS011;10510;47.942;9.442;2022-09-03T05:06:20;10.50;;;8.48;;
11486;SDS011;10510;47.942;9.442;2022-09-03T05:08:21;9.40;;;8.32;;
11486;SDS011;10510;47.942;9.442;2022-09-03T05:10:22;12.80;;;9.25;;
11486;SDS011;10510;47.942;9.442;2022-09-03T05:12:23;10.60;;;8.93;;
11486;SDS011;10510;47.942;9.442;2022-09-03T05:14:23;10.48;;;8.27;;
11486;SDS011;10510;47.942;9.442;2022-09-03T05:16:24;11.23;;;8.52;;
11486;SDS011;10510;47.942;9.442;2022-09-03T05:18:27;14.10;;;9.60;;
11486;SDS011;10510;47.942;9.442;2022-09-03T05:20:28;12.38;;;8.82;;
11486;SDS011;10510;47.942;9.442;2022-09-03T05:22:29;10.80;;;8.85;;
11486;SDS011;10510;47.942;9.442;2022-09-03T05:24:29;11.00;;;8.25;;
11486;SDS011;10510;47.942;9.442;2022-09-03T05:26:32;13.15;;;9.05;;
11486;SDS011;10510;47.942;9.442;2022-09-03T05:28:36;17.33;;;8.60;;
11486;SDS011;10510;47.942;9.442;2022-09-03T05:30:38;9.40;;;8.30;;
11486;SDS011;10510;47.942;9.442;2022-09-03T05:32:39;12.20;;;8.82;;
11486;SDS011;10510;47.942;9.442;2022-09-03T05:34:39;17.23;;;8.18;;
11486;SDS011;10510;47.942;9.442;2022-09-03T05:36:39;9.45;;;7.47;;
11486;SDS011;10510;47.942;9.442;2022-09-03T05:38:40;11.38;;;7.65;;
11486;SDS011;10510;47.942;9.442;2022-09-03T05:40:41;7.78;;;6.95;;
11486;SDS011;10510;47.942;9.442;2022-09-03T05:42:41;9.63;;;6.55;;
11486;SDS011;10510;47.942;9.442;2022-09-03T05:44:41;10.75;;;6.70;;
11486;SDS011;10510;47.942;9.442;2022-09-03T05:46:43;9.77;;;6.35;;
11486;SDS011;10510;47.942;9.442;2022-09-03T05:48:43;11.75;;;6.75;;
11486;SDS011;10510;47.942;9.442;2022-09-03T05:50:44;9.80;;;6.68;;
11486;SDS011;10510;47.942;9.442;2022-09-03T05:52:44;8.50;;;6.38;;
11486;SDS011;10510;47.942;9.442;2022-09-03T05:54:44;9.65;;;6.75;;
11486;SDS011;10510;47.942;9.442;2022-09-03T05:56:45;9.23;;;7.43;;
11486;SDS011;10510;47.942;9.442;2022-09-03T05:58:49;10.93;;;6.20;;
11486;SDS011;10510;47.942;9.442;2022-09-03T06:00:51;9.77;;;6.68;;
11486;SDS011;10510;47.942;9.442;2022-09-03T06:02:52;8.05;;;6.57;;
11486;SDS011;10510;47.942;9.442;2022-09-03T06:04:52;8.82;;;6.50;;
11486;SDS011;10510;47.942;9.442;2022-09-03T06:06:53;12.88;;;6.80;;
11486;SDS011;10510;47.942;9.442;2022-09-03T06:08:55;9.07;;;6.47;;
11486;SDS011;10510;47.942;9.442;2022-09-03T06:11:01;9.90;;;6.75;;
11486;SDS011;10510;47.942;9.442;2022-09-03T06:13:04;9.00;;;6.38;;
11486;SDS011;10510;47.942;9.442;2022-09-03T06:15:04;9.57;;;5.35;;
11486;SDS011;10510;47.942;9.442;2022-09-03T06:17:05;7.70;;;5.55;;
11486;SDS011;10510;47.942;9.442;2022-09-03T06:19:05;6.95;;;5.28;;
11486;SDS011;10510;47.942;9.442;2022-09-03T06:21:08;6.88;;;4.97;;
11486;SDS011;10510;47.942;9.442;2022-09-03T06:23:08;7.38;;;4.93;;
11486;SDS011;10510;47.942;9.442;2022-09-03T06:25:09;9.68;;;5.18;;
11486;SDS011;10510;47.942;9.442;2022-09-03T06:27:10;8.48;;;5.63;;
11486;SDS011;10510;47.942;9.442;2022-09-03T06:29:11;7.68;;;4.63;;
11486;SDS011;10510;47.942;9.442;2022-09-03T06:31:12;11.65;;;5.40;;
11486;SDS011;10510;47.942;9.442;2022-09-03T06:33:14;8.35;;;4.95;;
11486;SDS011;10510;47.942;9.442;2022-09-03T06:35:17;8.15;;;4.70;;
11486;SDS011;10510;47.942;9.442;2022-09-03T06:37:17;6.88;;;5.10;;
11486;SDS011;10510;47.942;9.442;2022-09-03T06:39:18;6.57;;;5.25;;
11486;SDS011;10510;47.942;9.442;2022-09-03T06:41:19;6.68;;;5.13;;
11486;SDS011;10510;47.942;9.442;2022-09-03T06:43:24;6.90;;;4.18;;
11486;SDS011;10510;47.942;9.442;2022-09-03T06:45:26;6.50;;;4.05;;
11486;SDS011;10510;47.942;9.442;2022-09-03T06:47:28;4.05;;;3.47;;
11486;SDS011;10510;47.942;9.442;2022-09-03T06:49:28;8.63;;;3.97;;
11486;SDS011;10510;47.942;9.442;2022-09-03T06:51:30;7.30;;;2.80;;
11486;SDS011;10510;47.942;9.442;2022-09-03T06:53:33;4.40;;;3.00;;
11486;SDS011;10510;47.942;9.442;2022-09-03T06:55:34;5.47;;;2.78;;
11486;SDS011;10510;47.942;9.442;2022-09-03T06:57:38;7.28;;;3.03;;
11486;SDS011;10510;47.942;9.442;2022-09-03T06:59:39;3.28;;;2.42;;
11486;SDS011;10510;47.942;9.442;2022-09-03T07:01:39;3.28;;;2.47;;
11486;SDS011;10510;47.942;9.442;2022-09-03T07:03:42;4.13;;;3.00;;
11486;SDS011;10510;47.942;9.442;2022-09-03T07:05:43;3.75;;;2.30;;
11486;SDS011;10510;47.942;9.442;2022-09-03T07:07:44;3.00;;;2.45;;
11486;SDS011;10510;47.942;9.442;2022-09-03T07:09:45;3.28;;;2.50;;
11486;SDS011;10510;47.942;9.442;2022-09-03T07:11:45;4.82;;;2.20;;
11486;SDS011;10510;47.942;9.442;2022-09-03T07:13:47;2.20;;;2.00;;
11486;SDS011;10510;47.942;9.442;2022-09-03T07:15:56;3.67;;;2.20;;
11486;SDS011;10510;47.942;9.442;2022-09-03T07:17:58;4.80;;;2.20;;
11486;SDS011;10510;47.942;9.442;2022-09-03T07:19:58;5.00;;;2.40;;
11486;SDS011;10510;47.942;9.442;2022-09-03T07:21:59;2.25;;;1.52;;
11486;SDS011;10510;47.942;9.442;2022-09-03T07:23:59;2.83;;;1.95;;
11486;SDS011;10510;47.942;9.442;2022-09-03T07:26:05;2.85;;;2.10;;
11486;SDS011;10510;47.942;9.442;2022-09-03T07:28:06;4.35;;;2.10;;
11486;SDS011;10510;47.942;9.442;2022-09-03T07:30:07;4.75;;;2.20;;
11486;SDS011;10510;47.942;9.442;2022-09-03T07:32:09;2.38;;;1.98;;
11486;SDS011;10510;47.942;9.442;2022-09-03T07:34:10;4.07;;;2.17;;
11486;SDS011;10510;47.942;9.442;2022-09-03T07:36:13;2.67;;;2.05;;
11486;SDS011;10510;47.942;9.442;2022-09-03T07:38:18;2.30;;;1.98;;
11486;SDS011;10510;47.942;9.442;2022-09-03T07:40:18;1.83;;;1.55;;
11486;SDS011;10510;47.942;9.442;2022-09-03T07:42:19;2.97;;;2.30;;
11486;SDS011;10510;47.942;9.442;2022-09-03T07:44:19;4.13;;;2.25;;
11486;SDS011;10510;47.942;9.442;2022-09-03T07:46:21;3.60;;;2.28;;
11486;SDS011;10510;47.942;9.442;2022-09-03T07:48:22;2.42;;;2.10;;
11486;SDS011;10510;47.942;9.442;2022-09-03T07:50:23;3.55;;;2.10;;
11486;SDS011;10510;47.942;9.442;2022-09-03T07:52:23;3.15;;;2.33;;
11486;SDS011;10510;47.942;9.442;2022-09-03T07:54:23;4.38;;;2.60;;
11486;SDS011;10510;47.942;9.442;2022-09-03T07:56:26;2.50;;;2.30;;
11486;SDS011;10510;47.942;9.442;2022-09-03T07:58:30;8.15;;;1.95;;
11486;SDS011;10510;47.942;9.442;2022-09-03T08:00:32;8.63;;;2.15;;
11486;SDS011;10510;47.942;9.442;2022-09-03T08:02:33;3.55;;;1.55;;
11486;SDS011;10510;47.942;9.442;2022-09-03T08:04:33;3.20;;;1.50;;
11486;SDS011;10510;47.942;9.442;2022-09-03T08:06:35;2.85;;;1.70;;
11486;SDS011;10510;47.942;9.442;2022-09-03T08:08:37;1.65;;;1.48;;
11486;SDS011;10510;47.942;9.442;2022-09-03T08:10:37;2.75;;;1.80;;
11486;SDS011;10510;47.942;9.442;2022-09-03T08:12:39;2.78;;;1.73;;
11486;SDS011;10510;47.942;9.442;2022-09-03T08:14:39;1.58;;;1.42;;
11486;SDS011;10510;47.942;9.442;2022-09-03T08:16:41;4.05;;;1.40;;
11486;SDS011;10510;47.942;9.442;2022-09-03T08:18:42;2.25;;;1.50;;
11486;SDS011;10510;47.942;9.442;2022-09-03T08:20:44;1.58;;;1.20;;
11486;SDS011;10510;47.942;9.442;2022-09-03T08:22:45;1.63;;;1.30;;
11486;SDS011;10510;47.942;9.442;2022-09-03T08:24:46;2.15;;;1.25;;
11486;SDS011;10510;47.942;9.442;2022-09-03T08:26:46;2.30;;;1.50;;
11486;SDS011;10510;47.942;9.442;2022-09-03T08:28:47;2.35;;;1.48;;
11486;SDS011;10510;47.942;9.442;2022-09-03T08:30:48;1.83;;;1.50;;
11486;SDS011;10510;47.942;9.442;2022-09-03T08:32:48;2.33;;;1.70;;
11486;SDS011;10510;47.942;9.442;2022-09-03T08:34:49;1.00;;;0.90;;
11486;SDS011;10510;47.942;9.442;2022-09-03T08:36:51;1.80;;;1.38;;
11486;SDS011;10510;47.942;9.442;2022-09-03T08:38:53;1.10;;;0.98;;
11486;SDS011;10510;47.942;9.442;2022-09-03T08:41:01;1.00;;;0.90;;
11486;SDS011;10510;47.942;9.442;2022-09-03T08:43:09;1.60;;;0.80;;
11486;SDS011;10510;47.942;9.442;2022-09-03T08:45:16;1.17;;;1.08;;
11486;SDS011;10510;47.942;9.442;2022-09-03T08:49:41;1.10;;;0.93;;
11486;SDS011;10510;47.942;9.442;2022-09-03T08:51:42;1.63;;;1.13;;
11486;SDS011;10510;47.942;9.442;2022-09-03T08:53:47;2.03;;;1.02;;
11486;SDS011;10510;47.942;9.442;2022-09-03T08:55:55;1.13;;;0.98;;
11486;SDS011;10510;47.942;9.442;2022-09-03T09:00:09;1.33;;;0.80;;
11486;SDS011;10510;47.942;9.442;2022-09-03T09:02:34;2.13;;;1.13;;
11486;SDS011;10510;47.942;9.442;2022-09-03T09:11:39;0.95;;;0.80;;
11486;SDS011;10510;47.942;9.442;2022-09-03T09:13:50;1.52;;;1.25;;
11486;SDS011;10510;47.942;9.442;2022-09-03T09:16:05;0.85;;;0.80;;
11486;SDS011;10510;47.942;9.442;2022-09-03T09:18:10;2.83;;;1.00;;
11486;SDS011;10510;47.942;9.442;2022-09-03T09:24:44;0.95;;;0.80;;
11486;SDS011;10510;47.942;9.442;2022-09-03T09:26:46;3.67;;;0.80;;
11486;SDS011;10510;47.942;9.442;2022-09-03T09:28:56;3.10;;;1.00;;
11486;SDS011;10510;47.942;9.442;2022-09-03T09:31:02;2.10;;;1.10;;
11486;SDS011;10510;47.942;9.442;2022-09-03T09:33:06;1.35;;;1.00;;
11486;SDS011;10510;47.942;9.442;2022-09-03T09:35:07;1.55;;;1.20;;
11486;SDS011;10510;47.942;9.442;2022-09-03T09:37:10;2.80;;;1.10;;
11486;SDS011;10510;47.942;9.442;2022-09-03T09:39:12;2.15;;;1.00;;
11486;SDS011;10510;47.942;9.442;2022-09-03T09:41:19;2.28;;;1.30;;
11486;SDS011;10510;47.942;9.442;2022-09-03T09:43:20;0.88;;;0.88;;
11486;SDS011;10510;47.942;9.442;2022-09-03T09:45:21;1.85;;;0.70;;
11486;SDS011;10510;47.942;9.442;2022-09-03T09:47:28;0.90;;;0.50;;
11486;SDS011;10510;47.942;9.442;2022-09-03T09:49:34;1.23;;;0.90;;
11486;SDS011;10510;47.942;9.442;2022-09-03T09:51:42;0.88;;;0.80;;
11486;SDS011;10510;47.942;9.442;2022-09-03T09:53:42;1.17;;;0.90;;
11486;SDS011;10510;47.942;9.442;2022-09-03T09:55:50;1.55;;;0.80;;
11486;SDS011;10510;47.942;9.442;2022-09-03T09:58:05;1.02;;;0.80;;
11486;SDS011;10510;47.942;9.442;2022-09-03T10:00:11;2.60;;;0.70;;
11486;SDS011;10510;47.942;9.442;2022-09-03T10:02:24;0.52;;;0.52;;
11486;SDS011;10510;47.942;9.442;2022-09-03T10:04:30;1.35;;;0.85;;
11486;SDS011;10510;47.942;9.442;2022-09-03T10:06:31;3.17;;;1.00;;
11486;SDS011;10510;47.942;9.442;2022-09-03T10:08:50;1.77;;;0.80;;
11486;SDS011;10510;47.942;9.442;2022-09-03T10:10:52;1.63;;;0.88;;
11486;SDS011;10510;47.942;9.442;2022-09-03T10:12:54;0.88;;;0.65;;
11486;SDS011;10510;47.942;9.442;2022-09-03T10:17:27;2.25;;;0.80;;
11486;SDS011;10510;47.942;9.442;2022-09-03T10:19:42;1.60;;;0.93;;
11486;SDS011;10510;47.942;9.442;2022-09-03T10:22:13;0.80;;;0.80;;
11486;SDS011;10510;47.942;9.442;2022-09-03T10:26:40;2.55;;;0.93;;
11486;SDS011;10510;47.942;9.442;2022-09-03T10:28:45;0.98;;;0.85;;
11486;SDS011;10510;47.942;9.442;2022-09-03T10:31:03;1.85;;;0.52;;
11486;SDS011;10510;47.942;9.442;2022-09-03T10:33:10;1.20;;;0.80;;
11486;SDS011;10510;47.942;9.442;2022-09-03T10:35:23;0.75;;;0.70;;
11486;SDS011;10510;47.942;9.442;2022-09-03T10:40:02;0.88;;;0.75;;
11486;SDS011;10510;47.942;9.442;2022-09-03T10:42:17;2.88;;;0.70;;
11486;SDS011;10510;47.942;9.442;2022-09-03T10:52:08;1.27;;;0.93;;
11486;SDS011;10510;47.942;9.442;2022-09-03T11:03:33;1.50;;;1.20;;
11486;SDS011;10510;47.942;9.442;2022-09-03T11:07:51;1.85;;;1.35;;
11486;SDS011;10510;47.942;9.442;2022-09-03T11:10:10;4.28;;;1.42;;
11486;SDS011;10510;47.942;9.442;2022-09-03T11:12:19;5.25;;;1.70;;
11486;SDS011;10510;47.942;9.442;2022-09-03T11:15:25;4.03;;;1.98;;
11486;SDS011;10510;47.942;9.442;2022-09-03T11:19:24;4.57;;;1.58;;
11486;SDS011;10510;47.942;9.442;2022-09-03T11:21:33;5.40;;;2.38;;
11486;SDS011;10510;47.942;9.442;2022-09-03T11:23:38;2.83;;;1.75;;
11486;SDS011;10510;47.942;9.442;2022-09-03T11:25:46;5.75;;;2.72;;
11486;SDS011;10510;47.942;9.442;2022-09-03T11:30:02;2.67;;;2.00;;
11486;SDS011;10510;47.942;9.442;2022-09-03T11:32:20;3.22;;;2.70;;
11486;SDS011;10510;47.942;9.442;2022-09-03T11:36:29;7.68;;;2.67;;
11486;SDS011;10510;47.942;9.442;2022-09-03T11:38:32;4.57;;;2.03;;
11486;SDS011;10510;47.942;9.442;2022-09-03T11:40:33;3.35;;;2.28;;
11486;SDS011;10510;47.942;9.442;2022-09-03T11:42:36;4.45;;;2.30;;
11486;SDS011;10510;47.942;9.442;2022-09-03T11:44:41;4.45;;;2.40;;
11486;SDS011;10510;47.942;9.442;2022-09-03T11:46:56;8.50;;;2.53;;
11486;SDS011;10510;47.942;9.442;2022-09-03T11:49:10;4.75;;;2.28;;
11486;SDS011;10510;47.942;9.442;2022-09-03T11:51:17;3.10;;;1.80;;
11486;SDS011;10510;47.942;9.442;2022-09-03T11:55:29;2.33;;;1.40;;
11486;SDS011;10510;47.942;9.442;2022-09-03T11:57:33;2.13;;;1.50;;
11486;SDS011;10510;47.942;9.442;2022-09-03T11:59:42;1.83;;;1.40;;
11486;SDS011;10510;47.942;9.442;2022-09-03T12:01:46;2.47;;;1.50;;
11486;SDS011;10510;47.942;9.442;2022-09-03T12:03:52;1.50;;;1.30;;
11486;SDS011;10510;47.942;9.442;2022-09-03T12:10:32;2.42;;;1.50;;
11486;SDS011;10510;47.942;9.442;2022-09-03T12:14:50;2.50;;;1.30;;
11486;SDS011;10510;47.942;9.442;2022-09-03T12:21:38;3.15;;;0.98;;
11486;SDS011;10510;47.942;9.442;2022-09-03T12:23:44;1.23;;;1.08;;
11486;SDS011;10510;47.942;9.442;2022-09-03T12:25:49;0.75;;;0.60;;
11486;SDS011;10510;47.942;9.442;2022-09-03T12:27:51;5.05;;;0.82;;
11486;SDS011;10510;47.942;9.442;2022-09-03T12:29:56;1.00;;;0.90;;
11486;SDS011;10510;47.942;9.442;2022-09-03T12:32:05;1.75;;;1.00;;
11486;SDS011;10510;47.942;9.442;2022-09-03T12:34:09;1.00;;;0.90;;
11486;SDS011;10510;47.942;9.442;2022-09-03T12:36:12;1.83;;;1.00;;
11486;SDS011;10510;47.942;9.442;2022-09-03T12:38:13;3.08;;;1.00;;
11486;SDS011;10510;47.942;9.442;2022-09-03T12:40:23;1.30;;;1.10;;
11486;SDS011;10510;47.942;9.442;2022-09-03T12:42:26;3.80;;;1.10;;
11486;SDS011;10510;47.942;9.442;2022-09-03T12:46:31;2.40;;;1.42;;
11486;SDS011;10510;47.942;9.442;2022-09-03T12:48:32;6.45;;;1.30;;
11486;SDS011;10510;47.942;9.442;2022-09-03T12:50:32;1.80;;;1.30;;
11486;SDS011;10510;47.942;9.442;2022-09-03T12:55:00;2.10;;;1.33;;
11486;SDS011;10510;47.942;9.442;2022-09-03T12:57:05;2.22;;;1.10;;
11486;SDS011;10510;47.942;9.442;2022-09-03T12:59:09;2.05;;;1.50;;
11486;SDS011;10510;47.942;9.442;2022-09-03T13:01:21;1.02;;;0.93;;
11486;SDS011;10510;47.942;9.442;2022-09-03T13:03:31;1.50;;;1.10;;
11486;SDS011;10510;47.942;9.442;2022-09-03T13:05:42;3.13;;;1.13;;
11486;SDS011;10510;47.942;9.442;2022-09-03T13:07:48;1.38;;;1.23;;
11486;SDS011;10510;47.942;9.442;2022-09-03T13:09:51;1.20;;;1.10;;
11486;SDS011;10510;47.942;9.442;2022-09-03T13:12:03;1.85;;;1.00;;
11486;SDS011;10510;47.942;9.442;2022-09-03T13:14:08;2.60;;;1.10;;
11486;SDS011;10510;47.942;9.442;2022-09-03T13:16:15;1.20;;;1.10;;
11486;SDS011;10510;47.942;9.442;2022-09-03T13:18:22;3.00;;;1.08;;
11486;SDS011;10510;47.942;9.442;2022-09-03T13:25:12;1.73;;;1.00;;
11486;SDS011;10510;47.942;9.442;2022-09-03T13:27:36;1.13;;;1.00;;
11486;SDS011;10510;47.942;9.442;2022-09-03T13:34:52;3.38;;;0.93;;
11486;SDS011;10510;47.942;9.442;2022-09-03T13:37:05;0.90;;;0.75;;
11486;SDS011;10510;47.942;9.442;2022-09-03T13:39:26;2.95;;;0.80;;
11486;SDS011;10510;47.942;9.442;2022-09-03T13:41:38;2.80;;;1.20;;
11486;SDS011;10510;47.942;9.442;2022-09-03T13:45:59;2.00;;;1.10;;
11486;SDS011;10510;47.942;9.442;2022-09-03T13:48:16;2.10;;;1.20;;
11486;SDS011;10510;47.942;9.442;2022-09-03T13:51:00;1.58;;;0.90;;
11486;SDS011;10510;47.942;9.442;2022-09-03T13:53:13;1.35;;;0.90;;
11486;SDS011;10510;47.942;9.442;2022-09-03T13:57:37;2.80;;;1.00;;
11486;SDS011;10510;47.942;9.442;2022-09-03T14:02:27;0.90;;;0.80;;
11486;SDS011;10510;47.942;9.442;2022-09-03T14:04:50;2.05;;;0.95;;
11486;SDS011;10510;47.942;9.442;2022-09-03T14:07:01;1.85;;;0.85;;
11486;SDS011;10510;47.942;9.442;2022-09-03T14:09:15;0.93;;;0.80;;
11486;SDS011;10510;47.942;9.442;2022-09-03T14:16:58;2.47;;;1.00;;
11486;SDS011;10510;47.942;9.442;2022-09-03T14:19:08;0.93;;;0.90;;
11486;SDS011;10510;47.942;9.442;2022-09-03T14:21:37;0.98;;;0.80;;
11486;SDS011;10510;47.942;9.442;2022-09-03T14:23:43;1.17;;;0.88;;
11486;SDS011;10510;47.942;9.442;2022-09-03T14:25:51;1.40;;;0.93;;
11486;SDS011;10510;47.942;9.442;2022-09-03T14:27:53;1.10;;;1.00;;
11486;SDS011;10510;47.942;9.442;2022-09-03T14:29:59;1.35;;;0.82;;
11486;SDS011;10510;47.942;9.442;2022-09-03T14:32:13;2.25;;;1.15;;
11486;SDS011;10510;47.942;9.442;2022-09-03T14:34:28;1.40;;;0.73;;
11486;SDS011;10510;47.942;9.442;2022-09-03T14:36:42;0.85;;;0.73;;
11486;SDS011;10510;47.942;9.442;2022-09-03T14:39:07;2.10;;;1.10;;
11486;SDS011;10510;47.942;9.442;2022-09-03T14:50:38;1.23;;;1.10;;
11486;SDS011;10510;47.942;9.442;2022-09-03T14:53:10;2.90;;;1.02;;
11486;SDS011;10510;47.942;9.442;2022-09-03T14:57:38;1.33;;;0.85;;
11486;SDS011;10510;47.942;9.442;2022-09-03T15:11:45;0.85;;;0.85;;